Time;durP1;ratioP1;P1;durP2;ratioP2;P2;SDS_P1;SDS_P2;PMS_P1;PMS_P2;Temp;Humidity;BMP_temperature;BMP_pressure;BME280_temperature;BME280_humidity;BME280_pressure;Samples;Min_cycle;Max_cycle;Signal;HPM_P1;HPM_P2
2022/07/21 00:01:27;;;;;;;6.33;4.37;;;;;;;24.64;100.00;96626.28;5072811;27;102799;-66
2022/07/21 00:03:54;;;;;;;7.00;3.83;;;;;;;24.60;100.00;96625.34;5073527;27;101844;-66
2022/07/21 00:06:21;;;;;;;6.50;4.07;;;;;;;24.61;100.00;96622.28;5055095;27;103640;-66
2022/07/21 00:08:50;;;;;;;4.97;3.87;;;;;;;24.59;100.00;96616.41;5057806;27;105587;-66
2022/07/21 00:11:17;;;;;;;7.47;3.90;;;;;;;24.63;100.00;96625.47;5055085;27;105509;-66
2022/07/21 00:13:44;;;;;;;6.37;3.87;;;;;;;24.55;100.00;96623.59;5087524;27;104520;-66
2022/07/21 00:16:12;;;;;;;4.13;3.60;;;;;;;24.55;100.00;96626.31;5072374;27;101982;-66
2022/07/21 00:18:39;;;;;;;4.20;3.70;;;;;;;24.47;100.00;96626.38;5072533;27;102616;-66
2022/07/21 00:21:07;;;;;;;3.87;3.13;;;;;;;24.33;100.00;96625.84;5053134;27;104256;-66
2022/07/21 00:23:34;;;;;;;3.97;3.60;;;;;;;24.39;100.00;96624.53;5072206;27;101863;-66
2022/07/21 00:26:03;;;;;;;5.13;4.00;;;;;;;24.49;100.00;96626.84;5072095;27;102410;-67
2022/07/21 00:28:30;;;;;;;3.90;3.50;;;;;;;24.40;100.00;96626.09;5053255;27;105848;-66
2022/07/21 00:30:57;;;;;;;3.43;3.10;;;;;;;24.27;100.00;96619.03;5075148;27;102055;-66
2022/07/21 00:33:23;;;;;;;4.10;2.90;;;;;;;24.12;100.00;96622.31;5052960;27;106147;-66
2022/07/21 00:35:50;;;;;;;5.87;3.47;;;;;;;24.09;100.00;96625.72;5072103;27;102076;-66
2022/07/21 00:38:18;;;;;;;3.13;2.90;;;;;;;23.93;100.00;96627.41;5072294;27;102370;-66
2022/07/21 00:40:45;;;;;;;4.17;2.80;;;;;;;23.99;100.00;96626.09;5086748;27;105535;-66
2022/07/21 00:43:14;;;;;;;3.47;3.27;;;;;;;24.05;100.00;96624.78;5071866;27;101859;-66
2022/07/21 00:45:41;;;;;;;2.93;2.73;;;;;;;24.12;100.00;96627.75;5071777;27;102579;-66
2022/07/21 00:48:09;;;;;;;3.47;3.13;;;;;;;24.02;100.00;96625.44;5071165;27;104381;-66
2022/07/21 00:50:36;;;;;;;3.70;3.40;;;;;;;23.96;100.00;96626.75;5056365;27;102049;-66
2022/07/21 00:53:03;;;;;;;3.30;3.00;;;;;;;23.94;100.00;96623.56;5071010;27;102723;-66
2022/07/21 00:55:30;;;;;;;3.43;3.00;;;;;;;24.01;100.00;96615.69;5053243;27;101995;-66
2022/07/21 00:57:58;;;;;;;3.30;2.90;;;;;;;24.07;100.00;96612.47;5053200;27;105547;-66
2022/07/21 01:00:30;;;;;;;4.40;3.00;;;;;;;24.03;100.00;96610.75;5070707;27;102518;-66
2022/07/21 01:02:58;;;;;;;3.50;2.70;;;;;;;23.84;100.00;96611.16;5071581;27;101755;-66
2022/07/21 01:05:25;;;;;;;3.60;2.80;;;;;;;23.84;100.00;96616.59;5052949;27;103748;-66
2022/07/21 01:07:55;;;;;;;5.50;3.00;;;;;;;23.89;100.00;96610.19;5052123;27;105684;-66
2022/07/21 01:10:24;;;;;;;3.67;3.37;;;;;;;23.80;100.00;96623.78;5071084;27;101936;-66
2022/07/21 01:12:52;;;;;;;3.70;3.00;;;;;;;23.63;100.00;96618.44;5010669;27;1249631;-67
2022/07/21 01:15:21;;;;;;;3.13;2.93;;;;;;;23.61;100.00;96620.72;5072747;27;101780;-66
2022/07/21 01:17:50;;;;;;;3.43;3.13;;;;;;;23.48;100.00;96615.50;5072535;27;102429;-66
2022/07/21 01:20:20;;;;;;;3.50;2.70;;;;;;;23.48;100.00;96626.38;5071691;27;102513;-66
2022/07/21 01:22:51;;;;;;;3.60;3.30;;;;;;;23.45;100.00;96630.53;5053924;27;101913;-66
2022/07/21 01:25:19;;;;;;;4.60;3.27;;;;;;;23.51;100.00;96625.69;5053890;27;105577;-66
2022/07/21 01:27:47;;;;;;;3.70;3.40;;;;;;;23.46;100.00;96612.31;5071667;27;102862;-66
2022/07/21 01:30:15;;;;;;;3.77;2.90;;;;;;;23.43;100.00;96623.81;5053620;27;102105;-66
2022/07/21 01:32:43;;;;;;;3.43;2.90;;;;;;;23.45;100.00;96630.53;5072245;27;102919;-66
2022/07/21 01:35:13;;;;;;;4.33;2.70;;;;;;;23.49;100.00;96631.44;5074805;27;102800;-66
2022/07/21 01:37:44;;;;;;;5.83;3.30;;;;;;;23.58;100.00;96626.78;5053772;27;105196;-66
2022/07/21 01:42:58;;;;;;;3.10;2.87;;;;;;;23.52;100.00;96614.50;5071452;27;101887;-66
2022/07/21 01:45:25;;;;;;;3.90;3.00;;;;;;;23.60;100.00;96613.66;5053606;27;105299;-66
2022/07/21 01:47:52;;;;;;;4.23;3.53;;;;;;;23.62;100.00;96608.72;5071414;27;102831;-66
2022/07/21 01:50:22;;;;;;;3.60;3.30;;;;;;;23.65;100.00;96610.75;5071641;27;101850;-66
2022/07/21 01:52:49;;;;;;;3.70;3.40;;;;;;;23.59;100.00;96605.88;5071947;27;102425;-66
2022/07/21 01:55:18;;;;;;;4.23;3.33;;;;;;;23.56;100.00;96617.38;5071246;27;102661;-66
2022/07/21 01:57:46;;;;;;;7.77;3.53;;;;;;;23.57;100.00;96613.53;5056807;27;101909;-66
2022/07/21 02:00:13;;;;;;;4.67;3.30;;;;;;;23.47;100.00;96619.31;5052623;27;105236;-66
2022/07/21 02:02:40;;;;;;;3.50;2.97;;;;;;;23.50;100.00;96615.97;5053331;27;102129;-66
2022/07/21 02:05:08;;;;;;;3.37;3.00;;;;;;;23.42;100.00;96605.94;5053036;27;103855;-66
2022/07/21 02:07:35;;;;;;;3.50;3.20;;;;;;;23.43;100.00;96611.03;5052602;27;105406;-66
2022/07/21 02:10:02;;;;;;;3.70;3.40;;;;;;;23.33;100.00;96607.91;5053109;27;102077;-66
2022/07/21 02:12:31;;;;;;;3.60;3.30;;;;;;;23.26;100.00;96611.09;5087421;27;105837;-66
2022/07/21 02:14:58;;;;;;;3.57;3.17;;;;;;;23.26;100.00;96615.75;5070897;27;103426;-66
2022/07/21 02:17:26;;;;;;;3.53;3.20;;;;;;;23.23;100.00;96608.25;5052703;27;101900;-66
2022/07/21 02:19:53;;;;;;;3.93;3.07;;;;;;;23.23;100.00;96613.69;5055792;27;105276;-66
2022/07/21 02:22:20;;;;;;;3.17;2.97;;;;;;;23.21;100.00;96615.94;5052902;27;101886;-66
2022/07/21 02:24:47;;;;;;;3.33;3.07;;;;;;;23.13;100.00;96608.56;5071440;27;102938;-66
2022/07/21 02:27:15;;;;;;;3.47;3.17;;;;;;;23.09;100.00;96611.13;5052425;27;104613;-66
2022/07/21 02:29:44;;;;;;;3.70;2.90;;;;;;;23.06;100.00;96611.78;5071080;27;102207;-67
2022/07/21 02:32:11;;;;;;;4.73;3.23;;;;;;;23.01;100.00;96606.56;5071219;27;102433;-66
2022/07/21 02:34:38;;;;;;;4.10;3.40;;;;;;;22.69;100.00;96609.00;5070715;27;102597;-66
2022/07/21 02:37:05;;;;;;;3.40;3.10;;;;;;;22.70;100.00;96611.41;5070899;27;101900;-67
2022/07/21 02:39:32;;;;;;;3.87;3.53;;;;;;;22.59;100.00;96609.34;5071229;27;102397;-66
2022/07/21 02:42:00;;;;;;;3.70;3.30;;;;;;;22.53;100.00;96616.03;5073893;27;101845;-67
2022/07/21 02:44:29;;;;;;;4.03;3.10;;;;;;;22.46;100.00;96624.66;5071084;27;102236;-66
2022/07/21 02:46:58;;;;;;;6.87;3.50;;;;;;;22.57;100.00;96627.84;5070441;27;102529;-66
2022/07/21 02:49:24;;;;;;;3.47;3.20;;;;;;;22.64;100.00;96628.94;5070922;27;101859;-66
2022/07/21 02:51:52;;;;;;;3.50;3.20;;;;;;;22.71;100.00;96628.44;5070372;27;102405;-66
2022/07/21 02:54:19;;;;;;;4.73;3.50;;;;;;;22.70;100.00;96635.00;5070181;27;103106;-66
2022/07/21 02:56:46;;;;;;;3.67;3.40;;;;;;;22.61;100.00;96636.94;5071056;27;101868;-66
2022/07/21 02:59:13;;;;;;;3.47;3.10;;;;;;;22.54;100.00;96623.84;5052341;27;103741;-66
2022/07/21 03:01:40;;;;;;;4.80;3.40;;;;;;;22.53;100.00;96640.44;5073793;27;102632;-66
2022/07/21 03:04:09;;;;;;;3.60;3.30;;;;;;;22.53;100.00;96637.72;5070905;27;103041;-66
2022/07/21 03:06:37;;;;;;;3.40;3.20;;;;;;;22.49;100.00;96636.75;5069915;27;103155;-66
2022/07/21 03:09:05;;;;;;;3.00;2.80;;;;;;;22.47;100.00;96634.38;5070857;27;101837;-66
2022/07/21 03:11:32;;;;;;;3.30;3.00;;;;;;;22.44;100.00;96636.91;5070781;27;102413;-66
2022/07/21 03:13:59;;;;;;;4.70;3.30;;;;;;;22.32;100.00;96631.31;5069704;27;102888;-66
2022/07/21 03:16:27;;;;;;;5.47;3.40;;;;;;;22.28;100.00;96628.44;5086459;27;101991;-66
2022/07/21 03:18:54;;;;;;;3.50;3.20;;;;;;;22.18;100.00;96638.81;5051957;27;105111;-66
2022/07/21 03:21:23;;;;;;;3.70;3.33;;;;;;;22.05;100.00;96632.41;5069820;27;102721;-66
2022/07/21 03:23:50;;;;;;;3.30;3.00;;;;;;;21.97;100.00;96629.69;5074065;27;101763;-66
2022/07/21 03:26:18;;;;;;;3.53;3.23;;;;;;;21.94;100.00;96631.13;5070005;27;103244;-66
2022/07/21 03:28:45;;;;;;;4.00;3.70;;;;;;;21.87;100.00;96640.84;5052224;27;101877;-66
2022/07/21 03:31:12;;;;;;;4.30;3.70;;;;;;;21.90;100.00;96634.78;5070332;27;101681;-66
2022/07/21 03:33:40;;;;;;;3.87;3.50;;;;;;;21.71;100.00;96632.38;5051139;27;103866;-66
2022/07/21 03:36:08;;;;;;;4.03;3.60;;;;;;;21.72;100.00;96633.13;5052018;27;101883;-66
2022/07/21 03:38:37;;;;;;;4.03;3.43;;;;;;;21.68;100.00;96632.19;5070645;27;102716;-66
2022/07/21 03:41:05;;;;;;;3.87;3.57;;;;;;;21.64;100.00;96634.69;5051369;27;105420;-66
2022/07/21 03:43:32;;;;;;;5.17;3.90;;;;;;;21.65;100.00;96644.41;5051636;27;101986;-66
2022/07/21 03:46:01;;;;;;;5.30;3.40;;;;;;;21.58;100.00;96651.41;5054532;27;105162;-66
2022/07/21 03:48:28;;;;;;;3.73;3.43;;;;;;;21.64;100.00;96653.63;5070045;27;101787;-66
2022/07/21 03:50:57;;;;;;;3.90;3.10;;;;;;;21.63;100.00;96662.88;5069774;27;102395;-66
2022/07/21 03:53:24;;;;;;;4.00;3.60;;;;;;;21.53;100.00;96657.72;5069564;27;103163;-66
2022/07/21 03:56:35;;;;;;;4.57;3.77;;;;;;;21.56;100.00;96650.91;5069984;27;101944;-66
2022/07/21 03:59:04;;;;;;;4.13;3.60;;;;;;;21.59;100.00;96655.69;5068183;27;103022;-66
2022/07/21 04:01:31;;;;;;;4.80;3.70;;;;;;;21.67;100.00;96654.91;5051347;27;105849;-66
2022/07/21 04:03:58;;;;;;;4.67;4.17;;;;;;;21.79;100.00;96671.41;5070465;27;101818;-66
2022/07/21 04:06:26;;;;;;;3.63;3.33;;;;;;;21.88;100.00;96678.44;5072902;27;102348;-66
2022/07/21 04:08:53;;;;;;;5.80;4.30;;;;;;;21.95;100.00;96680.66;5058388;27;105951;-66
2022/07/21 04:11:20;;;;;;;4.33;3.63;;;;;;;22.02;100.00;96681.78;5073995;27;102913;-68
2022/07/21 04:13:47;;;;;;;4.03;3.67;;;;;;;22.01;100.00;96679.44;5051099;27;105922;-66
2022/07/21 04:16:26;;;;;;;5.53;3.60;;;;;;;22.14;100.00;96683.91;5051705;27;102068;-66
2022/07/21 04:18:53;;;;;;;5.43;3.83;;;;;;;22.22;100.00;96683.09;5051576;27;105147;-66
2022/07/21 04:21:20;;;;;;;5.27;4.10;;;;;;;22.19;100.00;96684.53;5052563;27;103385;-66
2022/07/21 04:23:47;;;;;;;5.90;3.80;;;;;;;22.12;100.00;96686.91;5051819;27;101900;-66
2022/07/21 04:26:15;;;;;;;4.07;3.70;;;;;;;22.22;100.00;96683.09;5051309;27;105453;-66
2022/07/21 04:28:41;;;;;;;5.63;3.80;;;;;;;22.40;100.00;96682.03;5050656;27;105545;-66
2022/07/21 04:31:09;;;;;;;4.03;3.53;;;;;;;22.36;100.00;96689.19;5054648;27;101846;-66
2022/07/21 04:33:37;;;;;;;4.43;3.30;;;;;;;22.43;100.00;96686.78;5050491;27;105904;-66
2022/07/21 04:36:05;;;;;;;4.90;3.40;;;;;;;22.51;100.00;96686.06;5051293;27;101971;-66
2022/07/21 04:38:32;;;;;;;4.00;3.50;;;;;;;22.50;100.00;96685.25;5052458;27;102324;-66
2022/07/21 04:40:59;;;;;;;4.50;3.50;;;;;;;22.56;100.00;96689.38;5050540;27;105511;-66
2022/07/21 04:43:26;;;;;;;4.90;3.90;;;;;;;22.59;100.00;96686.06;5052591;27;101698;-66
2022/07/21 04:45:54;;;;;;;4.73;3.63;;;;;;;22.67;100.00;96687.16;5050912;27;105283;-66
2022/07/21 04:48:21;;;;;;;4.07;3.73;;;;;;;22.79;100.00;96690.84;5052115;27;102604;-66
2022/07/21 04:50:51;;;;;;;4.03;3.73;;;;;;;22.93;100.00;96686.00;5054488;27;102046;-65
2022/07/21 04:53:18;;;;;;;6.80;4.40;;;;;;;23.03;100.00;96690.31;5049745;27;105111;-65
2022/07/21 04:55:45;;;;;;;4.77;4.30;;;;;;;23.11;100.00;96697.66;5051087;27;102069;-66
2022/07/21 04:58:12;;;;;;;4.83;3.93;;;;;;;23.17;100.00;96691.75;5050974;27;105152;-66
2022/07/21 05:00:40;;;;;;;5.20;4.30;;;;;;;23.21;100.00;96698.13;5049877;27;106783;-66
2022/07/21 05:03:07;;;;;;;4.63;4.10;;;;;;;23.22;100.00;96704.34;5050774;27;102242;-66
2022/07/21 05:05:34;;;;;;;5.47;4.17;;;;;;;23.21;100.00;96710.91;5050814;27;105293;-66
2022/07/21 05:08:03;;;;;;;6.23;3.93;;;;;;;23.27;100.00;96704.19;5050191;27;105691;-65
2022/07/21 05:10:30;;;;;;;5.10;4.40;;;;;;;23.27;100.00;96710.41;5050676;27;102242;-65
2022/07/21 05:12:58;;;;;;;4.00;3.60;;;;;;;23.26;100.00;96711.53;5053187;27;105196;-68
2022/07/21 05:15:25;;;;;;;4.60;4.20;;;;;;;23.39;100.00;96717.88;5050715;27;101915;-68
2022/07/21 05:17:52;;;;;;;6.07;4.60;;;;;;;23.55;100.00;96713.53;5050505;27;104068;-68
2022/07/21 05:20:19;;;;;;;4.40;4.00;;;;;;;23.66;100.00;96720.97;5049770;27;103990;-68
2022/07/21 05:22:47;;;;;;;5.20;4.07;;;;;;;23.75;100.00;96724.47;5050768;27;102092;-68
2022/07/21 05:25:16;;;;;;;4.27;3.90;;;;;;;23.84;100.00;96727.16;5050503;27;105251;-68
2022/07/21 05:27:43;;;;;;;4.73;4.37;;;;;;;23.94;100.00;96729.53;5051359;27;102657;-68
2022/07/21 05:30:11;;;;;;;6.13;4.53;;;;;;;23.98;100.00;96727.75;5050154;27;101946;-68
2022/07/21 05:32:39;;;;;;;5.30;4.90;;;;;;;23.96;100.00;96735.41;5051354;27;104543;-69
2022/07/21 05:35:10;;;;;;;6.53;4.87;;;;;;;24.01;100.00;96725.19;5054609;27;102574;-68
2022/07/21 05:37:38;;;;;;;6.13;5.20;;;;;;;24.02;100.00;96740.34;5051972;27;102290;-68
2022/07/21 05:40:06;;;;;;;6.33;5.60;;;;;;;23.88;100.00;96738.97;5049516;27;105098;-68
2022/07/21 05:42:36;;;;;;;7.07;5.07;;;;;;;23.71;100.00;96731.66;5051524;27;101820;-68
2022/07/21 05:45:03;;;;;;;5.57;5.03;;;;;;;23.73;100.00;96740.28;5050205;27;105609;-68
2022/07/21 05:47:31;;;;;;;5.73;5.23;;;;;;;23.55;100.00;96741.44;5050774;27;103187;-68
2022/07/21 05:49:59;;;;;;;8.37;5.73;;;;;;;23.47;100.00;96739.56;5049967;27;101809;-68
2022/07/21 05:52:26;;;;;;;6.43;5.73;;;;;;;23.51;100.00;96742.44;5049617;27;105120;-68
2022/07/21 05:54:53;;;;;;;6.30;5.70;;;;;;;23.62;100.00;96747.19;5050633;27;103114;-68
2022/07/21 05:57:20;;;;;;;9.00;6.10;;;;;;;23.62;100.00;96738.25;5055072;27;101759;-68
2022/07/21 05:59:48;;;;;;;7.20;6.33;;;;;;;23.57;100.00;96746.56;5050727;27;102651;-68
2022/07/21 06:02:16;;;;;;;10.03;7.10;;;;;;;23.64;100.00;96749.59;5051131;27;101937;-68
2022/07/21 06:04:43;;;;;;;11.73;6.93;;;;;;;23.70;100.00;96751.03;5051303;27;102372;-68
2022/07/21 06:07:11;;;;;;;7.80;7.00;;;;;;;23.68;100.00;96750.53;5050435;27;103162;-68
2022/07/21 06:09:38;;;;;;;10.03;7.23;;;;;;;23.46;100.00;96757.00;5049728;27;101913;-68
2022/07/21 06:12:05;;;;;;;8.13;7.33;;;;;;;23.57;100.00;96755.53;5051007;27;102413;-68
2022/07/21 06:14:32;;;;;;;8.20;7.47;;;;;;;23.49;100.00;96760.97;5066674;27;102671;-68
2022/07/21 06:17:01;;;;;;;9.73;7.40;;;;;;;23.40;100.00;96757.47;5053100;27;102119;-68
2022/07/21 06:19:28;;;;;;;7.83;7.13;;;;;;;23.28;100.00;96768.97;5074366;27;101758;-68
2022/07/21 06:21:55;;;;;;;7.43;6.70;;;;;;;23.64;100.00;96760.47;5071607;27;101700;-68
2022/07/21 06:24:22;;;;;;;8.30;7.50;;;;;;;23.59;100.00;96761.41;5071412;27;102346;-68
2022/07/21 06:26:50;;;;;;;9.13;8.27;;;;;;;23.21;100.00;96778.75;5051945;27;105837;-68
2022/07/21 06:29:17;;;;;;;8.37;7.57;;;;;;;23.21;100.00;96770.59;5070868;27;101852;-68
2022/07/21 06:31:44;;;;;;;8.57;7.60;;;;;;;23.15;100.00;96774.56;5052703;27;105112;-68
2022/07/21 06:34:12;;;;;;;8.87;7.50;;;;;;;23.37;100.00;96774.41;5070713;27;102718;-68
2022/07/21 06:36:39;;;;;;;11.83;8.47;;;;;;;23.04;100.00;96773.31;5071208;27;101866;-68
2022/07/21 06:39:07;;;;;;;9.37;8.57;;;;;;;23.07;100.00;96778.06;5052322;27;105218;-69
2022/07/21 06:41:34;;;;;;;9.50;8.40;;;;;;;23.21;100.00;96774.09;5055386;27;103913;-69
2022/07/21 06:44:06;;;;;;;11.47;8.67;;;;;;;23.26;100.00;96784.00;5052675;27;104903;-68
2022/07/21 06:46:34;;;;;;;9.40;8.47;;;;;;;23.27;100.00;96778.25;5070386;27;102547;-69
2022/07/21 06:49:01;;;;;;;10.80;8.43;;;;;;;23.41;100.00;96778.06;5071285;27;101686;-68
2022/07/21 06:51:30;;;;;;;9.27;8.40;;;;;;;23.28;100.00;96784.47;5070697;27;102863;-69
2022/07/21 06:53:58;;;;;;;9.73;8.77;;;;;;;23.19;100.00;96789.09;5070144;27;102857;-68
2022/07/21 06:56:25;;;;;;;9.27;8.47;;;;;;;23.46;100.00;96781.41;5070985;27;101878;-69
2022/07/21 06:58:54;;;;;;;10.10;9.10;;;;;;;23.39;100.00;96783.84;5070677;27;102349;-68
2022/07/21 07:01:22;;;;;;;9.30;8.40;;;;;;;23.46;100.00;96786.03;5073677;27;103130;-68
2022/07/21 07:03:49;;;;;;;9.43;8.63;;;;;;;23.59;100.00;96793.22;5071013;27;102376;-68
2022/07/21 07:06:16;;;;;;;10.33;9.33;;;;;;;23.44;100.00;96788.28;5070041;27;103089;-68
2022/07/21 07:08:45;;;;;;;9.90;9.03;;;;;;;23.77;100.00;96790.09;5052330;27;101892;-68
2022/07/21 07:11:12;;;;;;;9.50;8.70;;;;;;;23.53;100.00;96798.00;5052288;27;106729;-68
2022/07/21 07:13:39;;;;;;;9.50;8.60;;;;;;;23.79;100.00;96793.31;5069303;27;102610;-68
2022/07/21 07:16:07;;;;;;;11.33;9.70;;;;;;;23.55;100.00;96800.41;5052079;27;102094;-65
2022/07/21 07:18:34;;;;;;;10.03;9.03;;;;;;;23.73;100.00;96796.53;5070782;27;102906;-65
2022/07/21 07:21:01;;;;;;;9.47;8.60;;;;;;;24.14;100.00;96791.31;5051440;27;105697;-65
2022/07/21 07:23:28;;;;;;;10.07;9.17;;;;;;;23.63;100.00;96794.97;5074141;27;101971;-65
2022/07/21 07:25:56;;;;;;;10.00;9.00;;;;;;;23.98;100.00;96801.91;5069737;27;102476;-65
2022/07/21 07:28:24;;;;;;;10.63;9.63;;;;;;;23.92;100.00;96802.44;5070580;27;101777;-65
2022/07/21 07:30:51;;;;;;;9.90;8.90;;;;;;;23.86;100.00;96804.47;5051747;27;105421;-65
2022/07/21 07:33:20;;;;;;;11.17;9.80;;;;;;;23.71;100.00;96802.28;5069789;27;102652;-65
2022/07/21 07:35:47;;;;;;;9.67;8.77;;;;;;;23.83;100.00;96809.75;5070299;27;102144;-65
2022/07/21 07:38:15;;;;;;;10.73;9.73;;;;;;;23.63;100.00;96807.72;5070611;27;102932;-65
2022/07/21 07:40:42;;;;;;;10.43;9.53;;;;;;;23.77;100.00;96814.56;5052936;27;105363;-65
2022/07/21 07:43:11;;;;;;;11.60;10.47;;;;;;;23.66;100.00;96815.25;5055253;27;101994;-65
2022/07/21 07:45:39;;;;;;;11.07;10.17;;;;;;;23.66;100.00;96812.53;5075888;27;102561;-65
2022/07/21 07:48:07;;;;;;;13.43;10.43;;;;;;;23.44;100.00;96812.72;5072905;27;102086;-65
2022/07/21 07:50:34;;;;;;;10.60;9.80;;;;;;;23.54;100.00;96810.47;5072455;27;102534;-65
2022/07/21 07:53:01;;;;;;;12.27;11.17;;;;;;;23.60;100.00;96813.81;5072983;27;103261;-65
2022/07/21 07:55:29;;;;;;;12.80;11.67;;;;;;;23.42;100.00;96820.38;5072884;27;101804;-65
2022/07/21 07:57:56;;;;;;;12.13;11.00;;;;;;;23.43;100.00;96819.28;5072506;27;102560;-65
2022/07/21 08:00:24;;;;;;;12.50;11.20;;;;;;;23.28;100.00;96817.81;5053625;27;103870;-65
2022/07/21 08:02:52;;;;;;;11.50;10.40;;;;;;;23.22;100.00;96823.75;5053937;27;102015;-65
2022/07/21 08:05:19;;;;;;;13.50;11.13;;;;;;;23.16;100.00;96827.72;5054057;27;105477;-65
2022/07/21 08:07:46;;;;;;;12.07;10.97;;;;;;;22.93;100.00;96832.50;5057083;27;105944;-65
2022/07/21 08:10:14;;;;;;;12.23;11.10;;;;;;;23.04;100.00;96827.56;5054001;27;105260;-65
2022/07/21 08:12:42;;;;;;;12.07;10.97;;;;;;;23.09;100.00;96830.91;5052742;27;105288;-65
2022/07/21 08:15:10;;;;;;;12.17;11.07;;;;;;;23.05;100.00;96835.38;5053825;27;102138;-65
2022/07/21 08:17:39;;;;;;;11.07;9.97;;;;;;;22.99;100.00;96831.22;5054147;27;105037;-66
2022/07/21 08:20:07;;;;;;;11.63;10.50;;;;;;;23.20;100.00;96831.41;5071719;27;102608;-66
2022/07/21 08:22:34;;;;;;;11.67;10.20;;;;;;;23.29;100.00;96827.59;5053739;27;101840;-66
2022/07/21 08:25:01;;;;;;;11.47;10.57;;;;;;;23.42;100.00;96828.50;5072206;27;102406;-66
2022/07/21 08:27:28;;;;;;;11.07;10.13;;;;;;;23.56;100.00;96840.00;5071929;27;103165;-66
2022/07/21 08:29:55;;;;;;;10.30;9.40;;;;;;;23.43;100.00;96841.00;5075685;27;101941;-66
2022/07/21 08:32:22;;;;;;;10.27;9.27;;;;;;;23.61;100.00;96834.41;5072508;27;102775;-66
2022/07/21 08:34:51;;;;;;;11.40;9.17;;;;;;;23.86;100.00;96828.91;5054593;27;101904;-67
2022/07/21 08:37:21;;;;;;;10.10;9.20;;;;;;;23.94;100.00;96833.59;5054603;27;105604;-67
2022/07/21 08:39:49;;;;;;;10.00;9.20;;;;;;;23.86;100.00;96833.56;5053701;27;106511;-66
2022/07/21 08:42:16;;;;;;;10.63;9.47;;;;;;;23.81;100.00;96833.75;5054370;27;101890;-66
2022/07/21 08:44:44;;;;;;;10.10;9.10;;;;;;;24.08;100.00;96836.09;5054425;27;105311;-66
2022/07/21 08:47:11;;;;;;;9.97;9.07;;;;;;;23.72;100.00;96832.97;5053849;27;105661;-66
2022/07/21 08:49:39;;;;;;;10.60;9.50;;;;;;;24.11;100.00;96830.81;5054305;27;101900;-66
2022/07/21 08:52:09;;;;;;;10.90;9.90;;;;;;;24.08;100.00;96826.00;5056309;27;105650;-65
2022/07/21 08:54:36;;;;;;;11.27;9.10;;;;;;;24.06;100.00;96832.88;5054088;27;101869;-66
2022/07/21 08:57:03;;;;;;;10.70;9.70;;;;;;;23.97;100.00;96832.13;5053815;27;105793;-66
2022/07/21 08:59:31;;;;;;;12.67;10.60;;;;;;;23.96;100.00;96834.03;5053526;27;105266;-66
2022/07/21 09:01:59;;;;;;;10.90;9.83;;;;;;;23.95;100.00;96832.44;5053195;27;102143;-66
2022/07/21 09:04:29;;;;;;;11.90;10.53;;;;;;;23.84;100.00;96835.78;5072383;27;102909;-66
2022/07/21 09:06:58;;;;;;;11.63;10.53;;;;;;;23.77;100.00;96830.06;5070960;27;103321;-66
2022/07/21 09:09:29;;;;;;;10.80;9.90;;;;;;;24.03;100.00;96841.69;5053080;27;102021;-67
2022/07/21 09:11:57;;;;;;;10.03;9.13;;;;;;;24.06;100.00;96836.41;5075497;27;102299;-67
2022/07/21 09:14:26;;;;;;;11.10;10.03;;;;;;;23.68;100.00;96837.44;5072199;27;101997;-66
2022/07/21 09:16:55;;;;;;;11.20;10.03;;;;;;;23.87;100.00;96841.38;5052838;27;106179;-66
2022/07/21 09:19:26;;;;;;;10.37;9.47;;;;;;;23.92;100.00;96843.94;5070921;27;103139;-66
2022/07/21 09:21:55;;;;;;;10.57;9.47;;;;;;;23.44;100.00;96842.59;5053716;27;102077;-66
2022/07/21 09:24:28;;;;;;;10.73;9.83;;;;;;;23.58;100.00;96840.47;5053843;27;105135;-66
2022/07/21 09:27:09;;;;;;;9.80;8.90;;;;;;;23.82;100.00;96843.47;5071892;27;102521;-66
2022/07/21 09:29:40;;;;;;;9.63;8.70;;;;;;;24.03;100.00;96839.00;5053691;27;101876;-67
2022/07/21 09:32:16;;;;;;;9.77;8.83;;;;;;;24.19;100.00;96843.53;5053807;27;105138;-66
2022/07/21 09:34:43;;;;;;;10.83;9.30;;;;;;;24.27;100.00;96841.91;5074818;27;102677;-66
2022/07/21 09:37:10;;;;;;;9.77;8.90;;;;;;;24.41;100.00;96845.22;5053572;27;105718;-66
2022/07/21 09:39:45;;;;;;;9.93;9.03;;;;;;;24.45;100.00;96843.44;5052645;27;105498;-66
2022/07/21 09:42:17;;;;;;;10.10;9.10;;;;;;;24.61;100.00;96833.63;5071948;27;101912;-66
2022/07/21 09:44:46;;;;;;;10.47;9.57;;;;;;;24.60;100.00;96840.19;5054265;27;102378;-66
2022/07/21 09:47:15;;;;;;;10.03;9.07;;;;;;;24.67;100.00;96837.75;5052802;27;104682;-66
2022/07/21 09:49:43;;;;;;;10.50;9.50;;;;;;;24.79;100.00;96835.91;5071710;27;102066;-66
2022/07/21 09:52:21;;;;;;;10.90;9.83;;;;;;;25.08;100.00;96837.81;5071834;27;102357;-66
2022/07/21 09:54:48;;;;;;;9.43;8.63;;;;;;;25.39;100.00;96836.28;5052675;27;105562;-66
2022/07/21 09:57:18;;;;;;;10.27;9.30;;;;;;;25.48;100.00;96836.19;5056680;27;101990;-66
2022/07/21 09:59:46;;;;;;;14.47;8.60;;;;;;;25.57;100.00;96839.66;5071072;27;102913;-67
2022/07/21 10:02:22;;;;;;;9.73;8.73;;;;;;;25.70;100.00;96842.09;5052824;27;101973;-66
2022/07/21 10:04:55;;;;;;;10.83;9.67;;;;;;;25.63;100.00;96838.31;5053032;27;105247;-66
2022/07/21 10:07:23;;;;;;;12.23;9.77;;;;;;;25.11;100.00;96839.88;5052525;27;105234;-66
2022/07/21 10:09:51;;;;;;;10.17;9.17;;;;;;;25.40;100.00;96835.16;5052790;27;101998;-66
2022/07/21 10:12:20;;;;;;;10.70;9.70;;;;;;;25.32;100.00;96848.84;5053149;27;105692;-66
2022/07/21 10:14:48;;;;;;;11.23;10.07;;;;;;;24.70;100.00;96842.53;5048165;27;105405;-66
2022/07/21 10:17:15;;;;;;;11.67;10.57;;;;;;;25.28;100.00;96842.50;5048723;27;102001;-66
2022/07/21 10:19:53;;;;;;;11.43;9.90;;;;;;;25.47;100.00;96840.06;5052778;27;102646;-66
2022/07/21 10:22:30;;;;;;;10.83;9.83;;;;;;;25.73;100.00;96849.56;5049404;27;101984;-66
2022/07/21 10:24:57;;;;;;;10.77;9.90;;;;;;;25.96;100.00;96855.47;5049656;27;104940;-66
2022/07/21 10:27:26;;;;;;;11.87;10.77;;;;;;;25.41;100.00;96839.50;5049036;27;105639;-66
2022/07/21 10:30:00;;;;;;;12.33;11.23;;;;;;;25.18;100.00;96840.13;5049473;27;102012;-66
2022/07/21 10:32:31;;;;;;;11.13;9.93;;;;;;;25.48;100.00;96838.94;5048582;27;105624;-66
2022/07/21 10:35:00;;;;;;;11.47;10.33;;;;;;;25.68;100.00;96849.00;5050237;27;102748;-66
2022/07/21 10:37:50;;;;;;;12.07;10.73;;;;;;;26.13;100.00;96836.19;5048382;27;101901;-66
2022/07/21 10:40:40;;;;;;;11.10;10.00;;;;;;;26.26;100.00;96841.34;5048237;27;105277;-66
2022/07/21 10:43:40;;;;;;;9.97;9.10;;;;;;;26.55;100.00;96852.09;5051285;27;105672;-66
2022/07/21 10:46:40;;;;;;;11.10;9.93;;;;;;;26.08;100.00;96845.41;5049203;27;104974;-66
2022/07/21 10:49:09;;;;;;;10.87;9.77;;;;;;;26.65;100.00;96843.41;5007637;28;102712;-66
2022/07/21 10:51:53;;;;;;;10.93;9.93;;;;;;;26.73;100.00;96839.78;5007880;28;102383;-66
2022/07/21 10:54:25;;;;;;;12.80;11.70;;;;;;;25.69;100.00;96854.13;4947747;28;105411;-66
2022/07/21 10:57:30;;;;;;;11.60;10.60;;;;;;;25.61;100.00;96846.03;4930445;28;106118;-66
2022/07/21 11:00:25;;;;;;;13.73;12.33;;;;;;;24.89;100.00;96849.13;4946674;28;102165;-66
2022/07/21 11:02:55;;;;;;;12.77;11.43;;;;;;;25.10;100.00;96847.22;4947474;28;104726;-66
2022/07/21 11:05:26;;;;;;;12.73;11.43;;;;;;;25.20;100.00;96840.59;4946424;28;103232;-66
2022/07/21 11:08:16;;;;;;;12.50;11.33;;;;;;;25.22;100.00;96843.78;4934372;28;102106;-66
2022/07/21 11:10:45;;;;;;;13.43;11.77;;;;;;;25.20;100.00;96852.28;4946837;28;102610;-66
2022/07/21 11:13:13;;;;;;;13.77;12.47;;;;;;;24.95;100.00;96838.88;4949868;28;102250;-66
2022/07/21 11:16:06;;;;;;;12.70;11.50;;;;;;;25.38;100.00;96842.06;4969618;28;104774;-66
2022/07/21 11:18:34;;;;;;;14.50;12.97;;;;;;;24.98;100.00;96843.63;4955606;28;103135;-66
2022/07/21 11:21:12;;;;;;;16.83;13.50;;;;;;;24.72;100.00;96838.38;5004386;28;102087;-66
2022/07/21 11:23:42;;;;;;;15.40;13.93;;;;;;;24.43;100.00;96842.97;4993494;28;103631;-66
2022/07/21 11:26:10;;;;;;;13.97;12.57;;;;;;;24.63;100.00;96843.03;5009126;28;102976;-66